createdAt,value
2022-12-12T00:01:22.922Z,47.80
2022-12-12T00:04:28.080Z,47.23
2022-12-12T00:07:31.636Z,63.80
2022-12-12T00:10:36.531Z,45.53
2022-12-12T00:13:40.869Z,49.43
2022-12-12T00:16:44.451Z,48.57
2022-12-12T00:19:49.402Z,49.80
2022-12-12T00:22:53.053Z,52.17
2022-12-12T00:25:59.632Z,62.00
2022-12-12T00:29:05.429Z,52.50
2022-12-12T00:32:09.206Z,50.27
2022-12-12T00:35:14.486Z,56.70
2022-12-12T00:38:19.163Z,63.03
2022-12-12T00:41:23.953Z,52.70
2022-12-12T00:44:27.603Z,53.57
2022-12-12T00:47:31.241Z,53.73
2022-12-12T00:50:36.934Z,55.23
2022-12-12T00:53:41.190Z,88.63
2022-12-12T00:56:44.801Z,71.00
2022-12-12T00:59:48.433Z,55.60
2022-12-12T01:02:52.123Z,52.40
2022-12-12T01:05:57.103Z,45.90
2022-12-12T01:09:09.618Z,53.40
2022-12-12T01:12:13.351Z,155.67
2022-12-12T01:15:28.755Z,84.17
2022-12-12T01:18:32.346Z,61.83
2022-12-12T01:21:38.476Z,64.87
2022-12-12T01:24:42.145Z,59.07
2022-12-12T01:27:46.663Z,53.83
2022-12-12T01:30:50.251Z,52.37
2022-12-12T01:33:53.907Z,43.73
2022-12-12T01:36:59.106Z,45.40
2022-12-12T01:40:03.246Z,47.83
2022-12-12T01:43:12.158Z,42.27
2022-12-12T01:46:40.764Z,45.87
2022-12-12T01:49:48.506Z,40.80
2022-12-12T01:52:53.491Z,44.40
2022-12-12T01:55:58.628Z,53.03
2022-12-12T01:59:06.332Z,51.27
2022-12-12T02:02:11.588Z,42.37
2022-12-12T02:05:25.628Z,46.47
2022-12-12T02:08:31.968Z,43.07
2022-12-12T02:11:44.726Z,47.73
2022-12-12T02:14:53.968Z,44.27
2022-12-12T02:18:12.666Z,43.17
2022-12-12T02:21:28.088Z,41.93
2022-12-12T02:25:09.863Z,49.40
2022-12-12T02:29:01.546Z,40.37
2022-12-12T02:32:20.930Z,49.70
2022-12-12T02:35:36.829Z,38.87
2022-12-12T02:38:54.815Z,39.97
2022-12-12T02:42:07.383Z,37.83
2022-12-12T02:45:21.518Z,42.80
2022-12-12T02:48:36.989Z,42.70
2022-12-12T02:51:43.354Z,44.73
2022-12-12T02:54:48.663Z,43.57
2022-12-12T02:57:55.400Z,43.70
2022-12-12T03:01:15.857Z,45.90
2022-12-12T03:04:48.384Z,44.07
2022-12-12T03:08:11.221Z,43.37
2022-12-12T03:11:25.887Z,42.97
2022-12-12T03:14:45.838Z,42.97
2022-12-12T03:17:59.457Z,43.73
2022-12-12T03:21:11.692Z,44.50
2022-12-12T03:24:25.842Z,44.77
2022-12-12T03:27:36.771Z,40.87
2022-12-12T03:30:46.768Z,48.90
2022-12-12T03:33:58.806Z,40.60
2022-12-12T03:37:12.960Z,45.80
2022-12-12T03:40:24.341Z,48.53
2022-12-12T03:43:33.177Z,45.90
2022-12-12T03:46:49.165Z,46.93
2022-12-12T03:50:00.187Z,41.80
2022-12-12T03:53:12.120Z,45.13
2022-12-12T03:56:26.149Z,47.07
2022-12-12T03:59:38.341Z,46.73
2022-12-12T04:02:52.184Z,41.63
2022-12-12T04:06:22.181Z,44.67
2022-12-12T04:09:45.857Z,43.73
2022-12-12T04:13:06.461Z,46.07
2022-12-12T04:16:15.489Z,46.67
2022-12-12T04:19:45.055Z,43.80
2022-12-12T04:23:17.206Z,43.80
2022-12-12T04:26:42.313Z,43.40
2022-12-12T04:29:54.576Z,44.33
2022-12-12T04:33:07.088Z,42.40
2022-12-12T04:36:14.921Z,43.33
2022-12-12T04:39:21.662Z,44.33
2022-12-12T04:42:32.446Z,45.03
2022-12-12T04:45:41.668Z,47.77
2022-12-12T04:48:54.921Z,46.07
2022-12-12T04:52:06.691Z,46.27
2022-12-12T04:55:18.717Z,47.53
2022-12-12T04:58:24.779Z,44.57
2022-12-12T05:01:39.529Z,40.70
2022-12-12T05:04:53.901Z,40.60
2022-12-12T05:08:04.211Z,40.40
2022-12-12T05:11:09.134Z,42.23
2022-12-12T05:14:18.493Z,34.43
2022-12-12T05:17:32.255Z,33.97
2022-12-12T05:20:36.545Z,37.80
2022-12-12T05:23:40.158Z,35.57
2022-12-12T05:26:44.042Z,41.27
2022-12-12T05:29:49.145Z,43.17
2022-12-12T05:32:53.342Z,45.27
2022-12-12T05:35:56.981Z,42.07
2022-12-12T05:39:00.547Z,43.30
2022-12-12T05:42:04.262Z,35.87
2022-12-12T05:45:12.545Z,38.97
2022-12-12T05:48:21.044Z,47.83
2022-12-12T05:51:27.821Z,49.40
2022-12-12T05:54:31.709Z,48.90
2022-12-12T05:57:35.407Z,53.70
2022-12-12T06:00:40.431Z,54.40
2022-12-12T06:03:44.102Z,55.17
2022-12-12T06:06:47.932Z,59.97
2022-12-12T06:09:51.505Z,54.13
2022-12-12T06:12:55.132Z,55.27
2022-12-12T06:16:00.190Z,54.93
2022-12-12T06:19:05.131Z,60.20
2022-12-12T06:22:08.770Z,53.63
2022-12-12T06:25:14.457Z,71.10
2022-12-12T06:28:18.788Z,59.37
2022-12-12T06:31:25.884Z,56.87
2022-12-12T06:34:29.520Z,51.60
2022-12-12T06:37:33.238Z,46.73
2022-12-12T06:40:40.819Z,48.63
2022-12-12T06:43:45.810Z,50.47
2022-12-12T06:46:50.722Z,73.33
2022-12-12T06:49:54.340Z,77.33
2022-12-12T06:52:57.874Z,178.40
2022-12-12T06:56:01.814Z,100.87
2022-12-12T06:59:06.086Z,86.77
2022-12-12T07:02:13.284Z,61.83
2022-12-12T07:05:17.021Z,52.93
2022-12-12T07:08:20.864Z,145.27
2022-12-12T07:11:28.180Z,81.37
2022-12-12T07:14:32.122Z,71.53
2022-12-12T07:17:37.103Z,67.47
2022-12-12T07:20:41.555Z,59.53
2022-12-12T07:23:45.442Z,58.70
2022-12-12T07:26:54.537Z,63.27
2022-12-12T07:29:58.092Z,79.40
2022-12-12T07:33:03.862Z,59.83
2022-12-12T07:36:08.363Z,45.53
2022-12-12T07:39:15.945Z,40.63
2022-12-12T07:42:23.895Z,52.00
2022-12-12T07:45:36.566Z,43.87
2022-12-12T07:48:41.686Z,52.43
2022-12-12T07:51:48.963Z,56.57
2022-12-12T07:54:53.067Z,51.03
2022-12-12T07:57:57.095Z,47.73
2022-12-12T08:01:00.753Z,46.80
2022-12-12T08:04:06.202Z,44.40
2022-12-12T08:07:09.810Z,48.00
2022-12-12T08:10:13.760Z,49.87
2022-12-12T08:13:17.898Z,45.13
2022-12-12T08:16:24.469Z,49.90
2022-12-12T08:19:29.905Z,41.87
2022-12-12T08:22:34.179Z,46.37
2022-12-12T08:25:37.898Z,48.40
2022-12-12T08:28:44.001Z,42.70
2022-12-12T08:31:47.654Z,46.57
2022-12-12T08:34:57.155Z,47.03
2022-12-12T08:38:01.192Z,48.00
2022-12-12T08:41:05.009Z,48.33
2022-12-12T08:44:09.298Z,50.13
2022-12-12T08:47:12.974Z,44.63
2022-12-12T08:50:18.468Z,56.93
2022-12-12T08:53:21.994Z,50.70
2022-12-12T08:56:26.078Z,50.67
2022-12-12T08:59:29.903Z,48.43
2022-12-12T09:02:33.642Z,50.63
2022-12-12T09:05:38.769Z,53.83
2022-12-12T09:08:43.680Z,52.90
2022-12-12T09:11:47.450Z,50.23
2022-12-12T09:14:51.026Z,49.67
2022-12-12T09:17:54.651Z,50.00
2022-12-12T09:21:00.399Z,54.47
2022-12-12T09:24:04.133Z,55.67
2022-12-12T09:27:09.007Z,51.27
2022-12-12T09:30:13.937Z,58.60
2022-12-12T09:33:18.366Z,50.40
2022-12-12T09:36:23.267Z,50.07
2022-12-12T09:39:28.059Z,57.03
2022-12-12T09:42:35.002Z,50.70
2022-12-12T09:45:39.369Z,50.67
2022-12-12T09:48:46.831Z,51.97
2022-12-12T09:51:54.029Z,50.60
2022-12-12T09:54:58.912Z,99.70
2022-12-12T09:58:18.803Z,55.00
2022-12-12T10:01:32.545Z,60.03
2022-12-12T10:04:49.385Z,56.47
2022-12-12T10:08:07.918Z,49.00
2022-12-12T10:11:37.522Z,55.00
2022-12-12T10:14:47.001Z,50.47
2022-12-12T10:17:51.640Z,53.47
2022-12-12T10:20:58.803Z,54.10
2022-12-12T10:24:17.058Z,52.17
2022-12-12T10:27:20.654Z,48.57
2022-12-12T10:30:24.422Z,51.83
2022-12-12T10:33:43.654Z,46.60
2022-12-12T10:37:08.076Z,47.73
2022-12-12T10:40:35.600Z,53.00
2022-12-12T10:43:54.280Z,52.77
2022-12-12T10:47:06.210Z,53.80
2022-12-12T10:50:28.343Z,51.13
2022-12-12T10:53:33.759Z,77.60
2022-12-12T10:56:38.737Z,58.87
2022-12-12T10:59:45.251Z,45.33
2022-12-12T11:02:49.329Z,52.30
2022-12-12T11:05:54.646Z,49.53
2022-12-12T11:09:01.885Z,47.87
2022-12-12T11:12:16.132Z,48.03
2022-12-12T11:15:20.121Z,45.03
2022-12-12T11:18:25.629Z,45.27
2022-12-12T11:21:32.679Z,45.37
2022-12-12T11:24:45.193Z,46.27
2022-12-12T11:27:50.352Z,42.07
2022-12-12T11:30:57.288Z,43.27
2022-12-12T11:34:06.617Z,64.43
2022-12-12T11:37:18.673Z,46.27
2022-12-12T11:40:28.498Z,56.70
2022-12-12T11:43:37.002Z,40.13
2022-12-12T11:46:40.575Z,45.20
2022-12-12T11:49:48.742Z,47.77
2022-12-12T11:52:56.597Z,39.50
2022-12-12T11:56:33.191Z,44.13
2022-12-12T12:00:07.143Z,67.90
2022-12-12T12:03:52.744Z,52.20
2022-12-12T12:07:33.585Z,37.20
2022-12-12T12:10:56.394Z,31.90
2022-12-12T12:14:25.142Z,34.27
2022-12-12T12:17:59.070Z,28.50
2022-12-12T12:21:30.036Z,19.57
2022-12-12T12:25:13.061Z,20.73
2022-12-12T12:29:03.004Z,22.67
2022-12-12T12:32:17.581Z,21.33
2022-12-12T12:35:31.801Z,24.77
2022-12-12T12:38:57.891Z,17.60
2022-12-12T12:42:23.851Z,23.87
2022-12-12T12:45:45.706Z,18.37
2022-12-12T12:48:56.790Z,21.80
2022-12-12T12:52:11.048Z,20.40
2022-12-12T12:55:20.385Z,21.50
2022-12-12T12:58:29.124Z,22.47
2022-12-12T13:01:39.859Z,25.63
2022-12-12T13:04:51.262Z,25.87
2022-12-12T13:08:08.423Z,25.03
2022-12-12T13:11:19.229Z,20.43
2022-12-12T13:14:41.349Z,26.50
2022-12-12T13:17:53.350Z,23.80
2022-12-12T13:21:06.693Z,22.03
2022-12-12T13:24:20.593Z,22.53
2022-12-12T13:27:30.687Z,22.43
2022-12-12T13:30:53.702Z,20.17
2022-12-12T13:34:04.671Z,21.80
2022-12-12T13:37:08.990Z,25.47
2022-12-12T13:40:26.910Z,25.17
2022-12-12T13:43:44.169Z,22.07
2022-12-12T13:46:47.884Z,23.97
2022-12-12T13:49:55.058Z,22.80
2022-12-12T13:53:20.972Z,20.33
2022-12-12T13:56:44.984Z,20.73
2022-12-12T14:00:28.548Z,20.80
2022-12-12T14:03:32.421Z,28.50
2022-12-12T14:06:36.208Z,24.93
2022-12-12T14:09:49.450Z,29.27
2022-12-12T14:12:56.671Z,34.07
2022-12-12T14:16:07.206Z,26.47
2022-12-12T14:19:30.302Z,28.37
2022-12-12T14:23:29.506Z,33.77
2022-12-12T14:26:51.753Z,44.27
2022-12-12T14:29:58.004Z,33.60
2022-12-12T14:33:19.966Z,81.07
2022-12-12T14:37:34.435Z,85.53
2022-12-12T14:40:45.946Z,46.60
2022-12-12T14:44:38.221Z,32.37
2022-12-12T14:47:22.523Z,32.07
2022-12-12T14:50:26.186Z,48.53
2022-12-12T14:53:41.126Z,34.33
2022-12-12T14:56:52.747Z,30.47
2022-12-12T14:59:57.866Z,34.07
2022-12-12T15:03:24.693Z,25.22
2022-12-12T15:06:39.385Z,32.40
2022-12-12T15:09:51.164Z,37.00
2022-12-12T15:12:55.167Z,37.30
2022-12-12T15:16:02.862Z,41.50
2022-12-12T15:19:20.169Z,38.27
2022-12-12T15:22:32.041Z,35.80
2022-12-12T15:25:56.747Z,39.43
2022-12-12T15:29:00.492Z,37.33
2022-12-12T15:32:09.830Z,45.33
2022-12-12T15:35:19.853Z,37.50
2022-12-12T15:38:24.194Z,35.20
2022-12-12T15:41:29.884Z,31.37
2022-12-12T15:44:34.458Z,40.30
2022-12-12T15:47:38.193Z,38.80
2022-12-12T15:50:57.227Z,42.83
2022-12-12T15:54:08.004Z,38.43
2022-12-12T15:57:19.076Z,39.93
2022-12-12T16:00:34.586Z,41.23
2022-12-12T16:03:38.264Z,45.50
2022-12-12T16:06:44.488Z,46.37
2022-12-12T16:10:02.929Z,46.87
2022-12-12T16:13:26.269Z,50.80
2022-12-12T16:16:43.800Z,45.10
2022-12-12T16:19:55.302Z,43.60
2022-12-12T16:23:11.937Z,43.57
2022-12-12T16:26:15.816Z,44.37
2022-12-12T16:29:20.849Z,43.20
2022-12-12T16:32:26.828Z,38.10
2022-12-12T16:35:30.475Z,38.43
2022-12-12T16:38:35.419Z,41.93
2022-12-12T16:41:40.569Z,47.33
2022-12-12T16:44:46.146Z,41.87
2022-12-12T16:47:49.923Z,40.37
2022-12-12T16:50:57.711Z,35.77
2022-12-12T16:54:02.469Z,39.43
2022-12-12T16:57:06.228Z,40.30
2022-12-12T17:00:14.231Z,38.40
2022-12-12T17:03:18.789Z,41.73
2022-12-12T17:06:23.332Z,40.13
2022-12-12T17:09:30.007Z,46.00
2022-12-12T17:12:33.961Z,45.57
2022-12-12T17:15:39.114Z,39.53
2022-12-12T17:18:43.004Z,43.00
2022-12-12T17:21:47.147Z,39.97
2022-12-12T17:24:50.831Z,51.87
2022-12-12T17:27:54.692Z,52.33
2022-12-12T17:30:59.927Z,53.17
2022-12-12T17:34:03.914Z,49.30
2022-12-12T17:37:07.939Z,47.53
2022-12-12T17:40:13.978Z,43.37
2022-12-12T17:43:19.083Z,49.07
2022-12-12T17:46:27.796Z,49.90
2022-12-12T17:49:31.677Z,49.40
2022-12-12T17:52:35.322Z,48.53
2022-12-12T17:55:51.496Z,51.93
2022-12-12T17:58:59.529Z,51.73
2022-12-12T18:02:05.964Z,45.20
2022-12-12T18:05:10.898Z,46.40
2022-12-12T18:08:14.503Z,49.73
2022-12-12T18:11:23.429Z,48.17
2022-12-12T18:14:27.093Z,44.70
2022-12-12T18:17:32.190Z,43.20
2022-12-12T18:20:35.841Z,42.63
2022-12-12T18:23:39.662Z,46.23
2022-12-12T18:26:45.078Z,53.40
2022-12-12T18:29:48.669Z,55.17
2022-12-12T18:32:56.088Z,50.13
2022-12-12T18:36:06.192Z,51.67
2022-12-12T18:39:10.091Z,53.40
2022-12-12T18:42:13.741Z,57.87
2022-12-12T18:45:25.183Z,54.70
2022-12-12T18:48:30.993Z,52.63
2022-12-12T18:51:35.622Z,48.53
2022-12-12T18:54:39.446Z,50.87
2022-12-12T18:57:43.343Z,51.87
2022-12-12T19:00:47.641Z,57.57
2022-12-12T19:03:56.793Z,55.70
2022-12-12T19:07:00.500Z,100.03
2022-12-12T19:10:04.317Z,61.87
2022-12-12T19:13:08.210Z,58.23
2022-12-12T19:16:15.478Z,58.80
2022-12-12T19:19:20.868Z,56.07
2022-12-12T19:22:44.304Z,54.10
2022-12-12T19:25:49.046Z,57.77
2022-12-12T19:28:53.953Z,58.17
2022-12-12T19:31:58.805Z,59.37
2022-12-12T19:35:03.921Z,58.20
2022-12-12T19:38:07.702Z,57.43
2022-12-12T19:41:14.140Z,56.13
2022-12-12T19:44:17.745Z,53.60
2022-12-12T19:47:21.471Z,59.33
2022-12-12T19:50:26.545Z,51.63
2022-12-12T19:53:30.202Z,57.07
2022-12-12T19:56:35.901Z,113.97
2022-12-12T19:59:39.720Z,184.87
2022-12-12T20:02:43.335Z,144.47
2022-12-12T20:05:53.435Z,126.87
2022-12-12T20:09:00.120Z,103.57
2022-12-12T20:12:04.471Z,92.77
2022-12-12T20:15:09.590Z,68.07
2022-12-12T20:18:16.395Z,59.57
2022-12-12T20:21:59.169Z,55.80
2022-12-12T20:24:49.520Z,56.03
2022-12-12T20:27:53.233Z,39.53
2022-12-12T20:31:07.078Z,38.17
2022-12-12T20:34:13.706Z,43.20
2022-12-12T20:37:20.313Z,40.80
2022-12-12T20:40:23.976Z,50.03
2022-12-12T20:43:29.984Z,42.60
2022-12-12T20:46:37.216Z,46.83
2022-12-12T20:49:43.540Z,40.33
2022-12-12T20:52:48.564Z,47.80
2022-12-12T20:55:52.122Z,44.53
2022-12-12T20:58:58.032Z,41.87
2022-12-12T21:02:02.405Z,45.53
2022-12-12T21:05:08.559Z,38.90
2022-12-12T21:08:13.624Z,44.03
2022-12-12T21:11:21.668Z,50.17
2022-12-12T21:14:26.484Z,47.97
2022-12-12T21:17:30.804Z,47.63
2022-12-12T21:20:34.449Z,45.67
2022-12-12T21:23:39.876Z,45.80
2022-12-12T21:26:44.135Z,49.97
2022-12-12T21:29:48.210Z,52.57
2022-12-12T21:32:51.812Z,51.17
2022-12-12T21:35:56.257Z,53.73
2022-12-12T21:39:03.468Z,52.43
2022-12-12T21:42:07.230Z,51.30
2022-12-12T21:45:12.191Z,54.77
2022-12-12T21:48:15.987Z,50.97
2022-12-12T21:51:20.064Z,53.77
2022-12-12T21:54:26.489Z,51.07
2022-12-12T21:57:30.108Z,50.47
2022-12-12T22:00:39.970Z,51.47
2022-12-12T22:03:44.355Z,51.43
2022-12-12T22:06:48.178Z,61.30
2022-12-12T22:09:57.412Z,54.17
2022-12-12T22:13:15.000Z,47.83
2022-12-12T22:16:20.918Z,51.87
2022-12-12T22:19:24.566Z,50.77
2022-12-12T22:22:29.075Z,43.20
2022-12-12T22:25:34.729Z,50.83
2022-12-12T22:28:38.287Z,52.03
2022-12-12T22:31:43.112Z,48.03
2022-12-12T22:34:47.858Z,45.87
2022-12-12T22:37:51.720Z,47.00
2022-12-12T22:40:57.381Z,46.73
2022-12-12T22:44:03.031Z,53.93
2022-12-12T22:47:06.801Z,45.97
2022-12-12T22:50:11.644Z,45.60
2022-12-12T22:53:15.637Z,48.67
2022-12-12T22:56:20.655Z,47.70
2022-12-12T22:59:24.276Z,50.07
2022-12-12T23:02:27.931Z,52.27
2022-12-12T23:05:31.940Z,47.40
2022-12-12T23:08:35.625Z,46.17
2022-12-12T23:11:40.622Z,51.73
2022-12-12T23:14:44.523Z,57.33
2022-12-12T23:17:48.156Z,47.97
2022-12-12T23:20:51.828Z,50.73
2022-12-12T23:23:56.492Z,48.10
2022-12-12T23:27:01.568Z,45.83
2022-12-12T23:30:06.172Z,42.23
2022-12-12T23:33:09.769Z,50.67
2022-12-12T23:36:15.779Z,46.63
2022-12-12T23:39:20.076Z,45.43
2022-12-12T23:42:25.007Z,43.97
2022-12-12T23:45:40.949Z,46.43
2022-12-12T23:48:44.562Z,46.67
2022-12-12T23:51:50.779Z,45.93
2022-12-12T23:54:54.393Z,50.10
2022-12-12T23:57:59.333Z,44.23
